Time;durP1;ratioP1;P1;durP2;ratioP2;P2;SDS_P1;SDS_P2;PMS_P1;PMS_P2;Temp;Humidity;BMP_temperature;BMP_pressure;BME280_temperature;BME280_humidity;BME280_pressure;Samples;Min_cycle;Max_cycle;Signal;HPM_P1;HPM_P2
2023/01/17 00:01:55;;;;;;;27.00;16.70;;;;;;;;;;6263634;22;20004;-94
2023/01/17 00:10:08;;;;;;;24.75;14.52;;;;;;;;;;6297894;22;20014;-95
2023/01/17 00:18:05;;;;;;;22.42;13.73;;;;;;;;;;6315788;22;20073;-95
2023/01/17 00:26:03;;;;;;;24.65;15.00;;;;;;;;;;6356049;22;20321;-95
2023/01/17 01:35:55;;;;;;;25.55;14.32;;;;;;;;;;6314457;22;20007;-94
2023/01/17 01:38:22;;;;;;;21.77;14.65;;;;;;;;;;6287682;22;20003;-94
2023/01/17 01:40:50;;;;;;;23.38;14.75;;;;;;;;;;6291479;22;20008;-94
2023/01/17 01:43:19;;;;;;;24.80;14.63;;;;;;;;;;6291796;22;20004;-95
2023/01/17 01:45:52;;;;;;;22.77;14.45;;;;;;;;;;6290101;22;20004;-95
2023/01/17 01:48:30;;;;;;;22.90;14.43;;;;;;;;;;6317857;22;20003;-93
2023/01/17 01:50:57;;;;;;;22.75;14.20;;;;;;;;;;6319536;22;20003;-95
2023/01/17 01:53:24;;;;;;;26.17;16.13;;;;;;;;;;6292887;22;20041;-93
2023/01/17 01:55:51;;;;;;;22.02;14.43;;;;;;;;;;6291649;22;20000;-94
2023/01/17 01:58:19;;;;;;;23.52;15.32;;;;;;;;;;6319795;22;20003;-94
2023/01/17 02:00:47;;;;;;;25.77;15.20;;;;;;;;;;6323752;22;19995;-96
2023/01/17 02:03:24;;;;;;;22.92;14.15;;;;;;;;;;6319299;22;20033;-94
2023/01/17 02:05:50;;;;;;;25.98;15.77;;;;;;;;;;6318890;22;20003;-94
2023/01/17 02:08:18;;;;;;;25.92;15.00;;;;;;;;;;6318864;22;20082;-95
2023/01/17 02:10:47;;;;;;;25.85;15.45;;;;;;;;;;6322700;22;20000;-95
2023/01/17 02:13:17;;;;;;;24.42;14.93;;;;;;;;;;6271553;22;20027;-95
2023/01/17 02:15:43;;;;;;;26.67;14.98;;;;;;;;;;6322168;22;20006;-95
2023/01/17 02:18:37;;;;;;;28.55;15.18;;;;;;;;;;6314408;22;20023;-94
2023/01/17 02:21:05;;;;;;;24.38;14.25;;;;;;;;;;6196587;23;20009;-95
2023/01/17 02:23:50;;;;;;;22.40;14.93;;;;;;;;;;6168990;23;20089;-94
2023/01/17 02:26:30;;;;;;;22.25;14.43;;;;;;;;;;6193793;23;20013;-95
2023/01/17 02:29:16;;;;;;;22.60;14.88;;;;;;;;;;6169043;23;20001;-95
2023/01/17 02:31:48;;;;;;;23.98;15.10;;;;;;;;;;6193739;23;19997;-94
2023/01/17 02:34:25;;;;;;;20.55;13.85;;;;;;;;;;6167921;23;20001;-94
2023/01/17 02:37:01;;;;;;;23.08;13.48;;;;;;;;;;6168821;23;20364;-95
2023/01/17 02:39:33;;;;;;;21.83;13.85;;;;;;;;;;6168380;23;20033;-95
2023/01/17 02:42:04;;;;;;;22.33;13.70;;;;;;;;;;6192686;23;20372;-93
2023/01/17 02:53:28;;;;;;;49.58;19.73;;;;;;;;;;6289923;22;20034;-96
2023/01/17 02:58:46;;;;;;;48.22;19.75;;;;;;;;;;6249368;22;20139;-96
2023/01/17 03:04:48;;;;;;;99.32;30.25;;;;;;;;;;6296544;22;20003;-95
2023/01/17 03:07:17;;;;;;;122.38;34.22;;;;;;;;;;6199633;23;20009;-95
2023/01/17 03:09:44;;;;;;;68.18;27.05;;;;;;;;;;6172795;22;20020;-94
2023/01/17 03:12:11;;;;;;;25.65;14.32;;;;;;;;;;6193090;23;20024;-96
2023/01/17 03:14:38;;;;;;;23.85;13.55;;;;;;;;;;6192568;23;20051;-95
2023/01/17 03:17:04;;;;;;;23.17;14.10;;;;;;;;;;6192741;23;20004;-95
2023/01/17 03:19:32;;;;;;;19.90;13.35;;;;;;;;;;6198905;23;20012;-96
2023/01/17 03:21:58;;;;;;;19.95;12.80;;;;;;;;;;6176607;23;20009;-95
2023/01/17 03:24:32;;;;;;;21.25;13.05;;;;;;;;;;6201634;23;20005;-95
2023/01/17 03:27:19;;;;;;;18.90;12.65;;;;;;;;;;6200609;23;20012;-94
2023/01/17 03:29:46;;;;;;;23.63;13.13;;;;;;;;;;6201405;23;20013;-96
2023/01/17 03:32:13;;;;;;;23.38;14.85;;;;;;;;;;6201416;23;20009;-95
2023/01/17 03:34:39;;;;;;;22.27;14.55;;;;;;;;;;6174683;23;20001;-96
2023/01/17 03:37:12;;;;;;;29.50;16.42;;;;;;;;;;6202345;23;20005;-96
2023/01/17 03:39:38;;;;;;;22.92;15.30;;;;;;;;;;6175340;23;20009;-96
2023/01/17 03:42:06;;;;;;;20.35;14.63;;;;;;;;;;6188478;23;20034;-95
2023/01/17 03:44:35;;;;;;;25.00;15.70;;;;;;;;;;6262580;23;20004;-95
2023/01/17 03:47:10;;;;;;;32.15;19.95;;;;;;;;;;6260375;23;20067;-95
2023/01/17 03:49:40;;;;;;;36.83;20.05;;;;;;;;;;6257414;23;20008;-95
2023/01/17 03:52:06;;;;;;;30.52;17.08;;;;;;;;;;6255516;23;20020;-95
2023/01/17 03:54:32;;;;;;;18.35;12.15;;;;;;;;;;6255940;23;20051;-95
2023/01/17 03:59:39;;;;;;;14.80;10.02;;;;;;;;;;6262779;22;20374;-96
2023/01/17 04:02:05;;;;;;;13.75;9.30;;;;;;;;;;6232060;23;20024;-94
2023/01/17 04:04:32;;;;;;;14.98;9.88;;;;;;;;;;6225525;23;20012;-94
2023/01/17 04:06:59;;;;;;;15.40;9.93;;;;;;;;;;6251667;23;20008;-94
2023/01/17 04:09:25;;;;;;;15.90;10.65;;;;;;;;;;6225412;23;20258;-93
2023/01/17 04:11:52;;;;;;;15.05;10.65;;;;;;;;;;6229477;23;20336;-94
2023/01/17 04:14:18;;;;;;;16.13;10.90;;;;;;;;;;6229707;23;20054;-96
2023/01/17 04:16:44;;;;;;;19.17;12.25;;;;;;;;;;6257946;23;20004;-95
2023/01/17 04:19:14;;;;;;;17.73;12.30;;;;;;;;;;6260610;23;20015;-94
2023/01/17 04:21:41;;;;;;;20.65;13.40;;;;;;;;;;6257918;23;20000;-94
2023/01/17 04:24:07;;;;;;;21.80;13.85;;;;;;;;;;6257327;23;20008;-94
2023/01/17 04:26:33;;;;;;;20.67;13.27;;;;;;;;;;6257959;23;20290;-94
2023/01/17 04:28:59;;;;;;;21.33;14.52;;;;;;;;;;6231656;23;19996;-94
2023/01/17 04:31:26;;;;;;;20.90;15.20;;;;;;;;;;6257696;23;20024;-95
2023/01/17 04:33:52;;;;;;;25.27;17.67;;;;;;;;;;6256547;23;20271;-94
2023/01/17 04:36:18;;;;;;;27.83;17.48;;;;;;;;;;6254293;23;20236;-94
2023/01/17 04:38:44;;;;;;;26.30;16.67;;;;;;;;;;6226513;23;20004;-95
2023/01/17 04:41:10;;;;;;;26.92;17.30;;;;;;;;;;6252720;23;20012;-94
2023/01/17 04:43:36;;;;;;;23.08;16.88;;;;;;;;;;6226117;23;20054;-95
2023/01/17 04:46:04;;;;;;;25.83;17.13;;;;;;;;;;6225957;23;20062;-94
2023/01/17 04:48:30;;;;;;;23.10;16.65;;;;;;;;;;6253256;23;20292;-91
2023/01/17 04:51:00;;;;;;;25.42;16.73;;;;;;;;;;6251880;23;20007;-89
2023/01/17 04:53:26;;;;;;;22.77;16.27;;;;;;;;;;6225105;23;20087;-93
2023/01/17 04:55:52;;;;;;;22.73;15.35;;;;;;;;;;6225553;23;20334;-88
2023/01/17 04:58:18;;;;;;;27.67;18.80;;;;;;;;;;6251672;23;20005;-88
2023/01/17 05:00:49;;;;;;;24.63;16.08;;;;;;;;;;6219564;23;20071;-88
2023/01/17 05:03:15;;;;;;;25.83;18.08;;;;;;;;;;6221060;23;20000;-88
2023/01/17 05:05:42;;;;;;;26.65;17.70;;;;;;;;;;6220608;23;20009;-88
2023/01/17 05:08:08;;;;;;;28.02;16.95;;;;;;;;;;6221211;23;20012;-88
2023/01/17 05:10:34;;;;;;;23.52;14.45;;;;;;;;;;6221293;23;20033;-88
2023/01/17 05:13:01;;;;;;;20.20;13.88;;;;;;;;;;6221262;23;20000;-89
2023/01/17 05:15:27;;;;;;;20.83;13.77;;;;;;;;;;6220853;23;20039;-89
2023/01/17 05:17:54;;;;;;;24.83;13.85;;;;;;;;;;6220824;23;20381;-88
2023/01/17 05:20:21;;;;;;;19.40;12.50;;;;;;;;;;6221168;23;20008;-88
2023/01/17 05:22:54;;;;;;;19.25;12.82;;;;;;;;;;6219696;23;20016;-89
2023/01/17 05:25:24;;;;;;;16.77;12.07;;;;;;;;;;6223336;23;20027;-88
2023/01/17 05:27:50;;;;;;;19.25;11.63;;;;;;;;;;6222917;23;20043;-88
2023/01/17 05:30:17;;;;;;;20.73;13.70;;;;;;;;;;6221396;23;20272;-89
2023/01/17 05:32:50;;;;;;;19.88;12.25;;;;;;;;;;6223120;23;20071;-89
2023/01/17 05:35:18;;;;;;;26.45;14.57;;;;;;;;;;6222795;23;20079;-89
2023/01/17 05:37:48;;;;;;;20.10;14.05;;;;;;;;;;6223309;23;20004;-88
2023/01/17 05:40:34;;;;;;;24.20;14.85;;;;;;;;;;6223260;23;20024;-88
2023/01/17 05:43:02;;;;;;;20.83;12.63;;;;;;;;;;6221589;23;20036;-88
2023/01/17 05:45:28;;;;;;;22.25;13.88;;;;;;;;;;6223117;23;20008;-87
2023/01/17 05:47:55;;;;;;;21.05;14.35;;;;;;;;;;6222629;23;20237;-89
2023/01/17 05:50:28;;;;;;;23.02;14.85;;;;;;;;;;6222865;23;20359;-88
2023/01/17 05:53:05;;;;;;;23.65;14.75;;;;;;;;;;6222605;23;20363;-89
2023/01/17 05:55:31;;;;;;;23.25;13.57;;;;;;;;;;6222694;23;20001;-89
2023/01/17 05:57:58;;;;;;;24.00;14.77;;;;;;;;;;6223198;23;20032;-89
2023/01/17 06:00:24;;;;;;;24.75;15.82;;;;;;;;;;6231176;22;20018;-90
2023/01/17 06:02:52;;;;;;;21.95;15.30;;;;;;;;;;6253151;23;20259;-90
2023/01/17 06:05:18;;;;;;;21.35;13.82;;;;;;;;;;6252255;23;20351;-90
2023/01/17 06:07:45;;;;;;;22.13;14.20;;;;;;;;;;6252855;23;20035;-89
2023/01/17 06:10:13;;;;;;;18.20;12.40;;;;;;;;;;6253482;23;19996;-89
2023/01/17 06:12:39;;;;;;;18.60;10.82;;;;;;;;;;6252232;23;20367;-89
2023/01/17 06:15:05;;;;;;;21.33;11.52;;;;;;;;;;6251870;23;20035;-89
2023/01/17 06:17:31;;;;;;;15.73;10.25;;;;;;;;;;6252783;23;20007;-91
2023/01/17 06:19:57;;;;;;;14.18;8.68;;;;;;;;;;6251664;23;20007;-88
2023/01/17 06:22:24;;;;;;;12.57;7.78;;;;;;;;;;6251917;23;20004;-88
2023/01/17 06:24:50;;;;;;;12.05;8.27;;;;;;;;;;6251591;23;20008;-89
2023/01/17 06:27:16;;;;;;;14.35;8.68;;;;;;;;;;6253051;23;20102;-89
2023/01/17 06:29:42;;;;;;;10.55;7.38;;;;;;;;;;6251678;23;20019;-90
2023/01/17 06:32:08;;;;;;;14.45;8.02;;;;;;;;;;6252586;23;20000;-88
2023/01/17 06:34:34;;;;;;;12.40;8.25;;;;;;;;;;6251035;23;20026;-89
2023/01/17 06:37:00;;;;;;;11.15;7.70;;;;;;;;;;6252887;23;20284;-90
2023/01/17 06:39:26;;;;;;;14.10;9.40;;;;;;;;;;6252921;23;20263;-89
2023/01/17 06:41:52;;;;;;;14.68;8.55;;;;;;;;;;6253025;23;20004;-90
2023/01/17 06:44:18;;;;;;;16.25;9.60;;;;;;;;;;6252391;23;20083;-90
2023/01/17 06:46:46;;;;;;;17.52;10.48;;;;;;;;;;6253162;23;20010;-89
2023/01/17 06:49:12;;;;;;;19.13;9.80;;;;;;;;;;6252577;23;20076;-89
2023/01/17 06:51:38;;;;;;;14.88;9.88;;;;;;;;;;6252728;23;20007;-90
2023/01/17 06:54:04;;;;;;;18.83;11.43;;;;;;;;;;6251250;23;19996;-89
2023/01/17 06:56:31;;;;;;;17.58;11.75;;;;;;;;;;6252674;23;20042;-90
2023/01/17 06:58:57;;;;;;;20.05;12.23;;;;;;;;;;6252740;23;20027;-91
2023/01/17 07:01:23;;;;;;;23.77;13.20;;;;;;;;;;6249782;23;20024;-89
2023/01/17 07:03:51;;;;;;;25.35;13.10;;;;;;;;;;6251143;23;20007;-90
2023/01/17 07:06:17;;;;;;;20.80;12.23;;;;;;;;;;6251244;23;20003;-89
2023/01/17 07:08:43;;;;;;;21.90;13.43;;;;;;;;;;6249752;23;20043;-89
2023/01/17 07:11:10;;;;;;;23.48;13.52;;;;;;;;;;6250811;23;20001;-91
2023/01/17 07:13:37;;;;;;;19.70;12.70;;;;;;;;;;6250838;23;20449;-90
2023/01/17 07:16:04;;;;;;;33.95;11.50;;;;;;;;;;6250695;23;20004;-90
2023/01/17 07:18:30;;;;;;;15.65;10.15;;;;;;;;;;6250641;23;20005;-91
2023/01/17 07:20:56;;;;;;;16.15;10.85;;;;;;;;;;6249723;23;20004;-90
2023/01/17 07:23:23;;;;;;;15.30;9.60;;;;;;;;;;6250664;23;20000;-90
2023/01/17 07:25:53;;;;;;;16.17;9.63;;;;;;;;;;6250762;23;19996;-90
2023/01/17 07:28:19;;;;;;;23.92;12.57;;;;;;;;;;6251156;23;20004;-89
2023/01/17 07:30:45;;;;;;;17.35;9.95;;;;;;;;;;6249625;23;20012;-89
2023/01/17 07:33:12;;;;;;;18.33;11.68;;;;;;;;;;6251132;23;20079;-89
2023/01/17 07:35:38;;;;;;;21.63;13.63;;;;;;;;;;6251040;23;20000;-90
2023/01/17 07:38:04;;;;;;;24.67;15.52;;;;;;;;;;6250914;23;20004;-89
2023/01/17 07:40:31;;;;;;;22.17;14.70;;;;;;;;;;6250724;23;20000;-90
2023/01/17 07:43:00;;;;;;;28.80;16.10;;;;;;;;;;6251172;23;20012;-88
2023/01/17 07:45:27;;;;;;;23.25;15.40;;;;;;;;;;6251015;23;20026;-89
2023/01/17 07:47:53;;;;;;;31.52;19.02;;;;;;;;;;6249303;23;20307;-89
2023/01/17 07:50:19;;;;;;;35.72;19.83;;;;;;;;;;6249693;23;20036;-88
2023/01/17 07:52:51;;;;;;;38.25;20.50;;;;;;;;;;6249440;23;20000;-89
2023/01/17 07:55:18;;;;;;;49.03;23.63;;;;;;;;;;6250521;23;20008;-90
2023/01/17 07:57:47;;;;;;;55.00;24.50;;;;;;;;;;6250941;23;20026;-89
2023/01/17 08:00:14;;;;;;;47.05;22.25;;;;;;;;;;6163765;22;2013495;-88
2023/01/17 08:02:40;;;;;;;33.08;17.50;;;;;;;;;;6251850;23;20008;-90
2023/01/17 08:05:06;;;;;;;22.42;14.80;;;;;;;;;;6252086;23;20010;-91
2023/01/17 08:07:32;;;;;;;24.27;13.52;;;;;;;;;;6252055;23;20256;-89
2023/01/17 08:09:59;;;;;;;25.63;13.90;;;;;;;;;;6251695;23;20004;-90
2023/01/17 08:12:25;;;;;;;18.40;12.50;;;;;;;;;;6252177;23;20343;-90
2023/01/17 08:14:51;;;;;;;18.65;11.30;;;;;;;;;;6251692;23;19996;-90
2023/01/17 08:17:19;;;;;;;17.42;11.43;;;;;;;;;;6252009;23;20001;-90
2023/01/17 08:19:45;;;;;;;32.25;22.02;;;;;;;;;;6251673;23;20012;-89
2023/01/17 08:22:11;;;;;;;30.08;18.77;;;;;;;;;;6251505;23;20067;-89
2023/01/17 08:24:37;;;;;;;27.42;13.20;;;;;;;;;;6250301;23;20043;-90
2023/01/17 08:27:03;;;;;;;17.42;9.55;;;;;;;;;;6251403;23;20326;-90
2023/01/17 08:29:29;;;;;;;12.55;8.45;;;;;;;;;;6251273;23;20371;-91
2023/01/17 08:31:56;;;;;;;17.63;9.80;;;;;;;;;;6250327;23;20271;-90
2023/01/17 08:34:22;;;;;;;13.65;7.82;;;;;;;;;;6250432;23;20124;-89
2023/01/17 08:36:48;;;;;;;20.10;9.82;;;;;;;;;;6251937;23;20008;-89
2023/01/17 08:39:14;;;;;;;15.68;8.60;;;;;;;;;;6250454;23;20000;-90
2023/01/17 08:41:40;;;;;;;17.13;8.05;;;;;;;;;;6251411;23;20027;-91
2023/01/17 08:44:06;;;;;;;14.30;8.00;;;;;;;;;;6251459;23;20008;-90
2023/01/17 08:46:32;;;;;;;12.52;6.50;;;;;;;;;;6251721;23;20008;-90
2023/01/17 08:49:00;;;;;;;57.83;34.30;;;;;;;;;;6250348;23;20002;-90
2023/01/17 08:51:26;;;;;;;90.00;62.55;;;;;;;;;;6250513;23;20004;-92
2023/01/17 08:53:53;;;;;;;100.53;57.90;;;;;;;;;;6250486;23;20264;-91
2023/01/17 08:56:19;;;;;;;45.10;25.55;;;;;;;;;;6251864;23;20008;-91
2023/01/17 08:58:45;;;;;;;45.17;24.38;;;;;;;;;;6251736;23;20069;-89
2023/01/17 09:01:11;;;;;;;13.13;7.03;;;;;;;;;;6251152;23;20012;-89
2023/01/17 09:03:37;;;;;;;12.23;7.15;;;;;;;;;;6250121;23;20019;-89
2023/01/17 09:06:06;;;;;;;15.07;7.32;;;;;;;;;;6251237;23;20051;-89
2023/01/17 09:08:33;;;;;;;14.30;7.53;;;;;;;;;;6250237;23;20012;-89
2023/01/17 09:11:02;;;;;;;12.57;6.65;;;;;;;;;;6250247;23;20004;-90
2023/01/17 09:13:28;;;;;;;16.55;9.45;;;;;;;;;;6250319;23;20070;-90
2023/01/17 09:15:58;;;;;;;14.95;8.32;;;;;;;;;;6251574;23;20071;-89
2023/01/17 09:18:25;;;;;;;12.90;6.97;;;;;;;;;;6251583;23;20430;-89
2023/01/17 09:20:56;;;;;;;20.35;8.32;;;;;;;;;;6250252;23;20001;-89
2023/01/17 09:23:22;;;;;;;13.20;6.68;;;;;;;;;;6251552;23;19996;-89
2023/01/17 09:25:52;;;;;;;10.90;6.47;;;;;;;;;;6250112;23;20004;-89
2023/01/17 09:28:18;;;;;;;16.00;7.20;;;;;;;;;;6251245;23;20008;-89
2023/01/17 09:30:45;;;;;;;9.52;5.30;;;;;;;;;;6251595;23;20004;-89
2023/01/17 09:33:11;;;;;;;9.98;5.65;;;;;;;;;;6250176;23;20048;-89
2023/01/17 09:35:37;;;;;;;9.85;5.35;;;;;;;;;;6251487;23;20003;-89
2023/01/17 09:38:03;;;;;;;13.45;7.30;;;;;;;;;;6251144;23;20306;-89
2023/01/17 09:40:29;;;;;;;10.23;6.20;;;;;;;;;;6251106;23;20012;-91
2023/01/17 09:43:04;;;;;;;10.13;5.90;;;;;;;;;;6251668;23;20263;-89
2023/01/17 09:45:32;;;;;;;8.88;4.80;;;;;;;;;;6250954;23;20005;-90
2023/01/17 09:47:59;;;;;;;12.60;6.40;;;;;;;;;;6251347;23;20014;-90
2023/01/17 09:50:32;;;;;;;13.05;5.93;;;;;;;;;;6250158;23;20007;-89
2023/01/17 09:53:06;;;;;;;13.65;8.48;;;;;;;;;;6251412;23;19997;-89
2023/01/17 09:55:47;;;;;;;13.13;7.13;;;;;;;;;;6251045;23;20012;-89
2023/01/17 09:58:21;;;;;;;12.13;7.40;;;;;;;;;;6251411;23;20377;-89
2023/01/17 10:01:05;;;;;;;10.65;6.75;;;;;;;;;;6250967;22;20020;-89
2023/01/17 10:03:39;;;;;;;11.20;5.75;;;;;;;;;;6251367;23;20004;-88
2023/01/17 10:06:24;;;;;;;6.93;4.10;;;;;;;;;;6249688;23;20026;-89
2023/01/17 10:08:56;;;;;;;9.95;5.63;;;;;;;;;;6250060;23;20004;-90
2023/01/17 10:11:22;;;;;;;36.50;25.70;;;;;;;;;;6251213;23;20371;-90
2023/01/17 10:13:57;;;;;;;23.00;17.45;;;;;;;;;;6253255;23;20006;-89
2023/01/17 10:16:33;;;;;;;16.33;9.75;;;;;;;;;;6251748;23;20001;-88
2023/01/17 10:19:18;;;;;;;13.00;7.53;;;;;;;;;;6253188;23;20000;-87
2023/01/17 10:21:44;;;;;;;9.00;5.80;;;;;;;;;;6251507;23;20027;-88
2023/01/17 10:24:30;;;;;;;9.02;5.70;;;;;;;;;;6252825;23;20027;-88
2023/01/17 10:26:57;;;;;;;9.00;5.30;;;;;;;;;;6225742;23;20016;-89
2023/01/17 10:29:28;;;;;;;11.35;6.90;;;;;;;;;;6251254;23;20004;-88
2023/01/17 10:32:01;;;;;;;6.72;4.90;;;;;;;;;;6251229;23;20012;-88
2023/01/17 10:34:32;;;;;;;12.75;9.38;;;;;;;;;;6252505;23;20359;-88
2023/01/17 10:37:05;;;;;;;37.22;25.75;;;;;;;;;;6253048;23;20255;-89
2023/01/17 10:39:32;;;;;;;33.85;21.65;;;;;;;;;;6253030;23;20018;-89
2023/01/17 10:42:13;;;;;;;15.10;8.80;;;;;;;;;;6251758;23;20012;-88
2023/01/17 10:44:48;;;;;;;13.20;8.70;;;;;;;;;;6253064;23;20241;-88
2023/01/17 10:47:18;;;;;;;14.20;9.73;;;;;;;;;;6252807;23;20000;-88
2023/01/17 10:49:46;;;;;;;10.55;6.80;;;;;;;;;;6252856;23;19996;-87
2023/01/17 10:52:19;;;;;;;13.75;7.13;;;;;;;;;;6251094;23;20263;-88
2023/01/17 10:54:51;;;;;;;14.43;10.60;;;;;;;;;;6252101;23;20043;-88
2023/01/17 10:57:23;;;;;;;12.77;8.60;;;;;;;;;;6252595;23;20023;-88
2023/01/17 10:59:50;;;;;;;18.02;13.23;;;;;;;;;;6251180;22;20263;-87
2023/01/17 11:02:35;;;;;;;21.35;15.68;;;;;;;;;;6252469;23;20008;-88
2023/01/17 11:05:04;;;;;;;13.20;8.48;;;;;;;;;;6252322;23;20000;-88
2023/01/17 11:07:30;;;;;;;13.38;8.32;;;;;;;;;;6252157;23;20000;-89
2023/01/17 11:09:57;;;;;;;16.52;10.90;;;;;;;;;;6251278;23;20091;-87
2023/01/17 11:12:28;;;;;;;20.90;13.90;;;;;;;;;;6251168;23;20004;-87
2023/01/17 11:14:59;;;;;;;9.00;7.03;;;;;;;;;;6251165;23;20000;-88
2023/01/17 11:17:26;;;;;;;9.27;5.53;;;;;;;;;;6252556;23;20038;-88
2023/01/17 11:19:53;;;;;;;12.80;8.25;;;;;;;;;;6251201;23;20255;-88
2023/01/17 11:22:19;;;;;;;8.50;3.92;;;;;;;;;;6252245;23;20003;-87
2023/01/17 11:25:04;;;;;;;20.52;13.73;;;;;;;;;;6252432;23;20064;-88
2023/01/17 11:27:32;;;;;;;7.43;4.50;;;;;;;;;;6250914;23;20008;-88
2023/01/17 11:30:03;;;;;;;8.60;6.03;;;;;;;;;;6252400;23;19997;-88
2023/01/17 11:32:31;;;;;;;8.55;5.70;;;;;;;;;;6250940;23;20012;-89
2023/01/17 11:35:19;;;;;;;10.57;7.28;;;;;;;;;;6250868;23;20008;-88
2023/01/17 11:37:49;;;;;;;8.00;4.75;;;;;;;;;;6252127;23;20000;-88
2023/01/17 11:40:15;;;;;;;8.63;5.85;;;;;;;;;;6250928;23;20012;-88
2023/01/17 11:42:41;;;;;;;10.32;6.53;;;;;;;;;;6252383;23;20092;-88
2023/01/17 11:45:22;;;;;;;8.25;3.72;;;;;;;;;;6252072;23;20012;-89
2023/01/17 11:47:48;;;;;;;9.80;5.57;;;;;;;;;;6250793;23;20303;-88
2023/01/17 11:50:24;;;;;;;10.10;6.38;;;;;;;;;;6252259;23;20012;-89
2023/01/17 11:52:50;;;;;;;8.23;5.00;;;;;;;;;;6250678;23;20004;-89
2023/01/17 11:55:17;;;;;;;8.80;5.72;;;;;;;;;;6250950;23;20004;-89
2023/01/17 11:57:48;;;;;;;5.95;3.95;;;;;;;;;;6252191;23;20008;-89
2023/01/17 12:00:36;;;;;;;14.38;9.00;;;;;;;;;;6251851;23;20027;-88
2023/01/17 12:03:14;;;;;;;11.35;6.95;;;;;;;;;;6250469;23;20012;-89
2023/01/17 12:05:52;;;;;;;11.52;8.20;;;;;;;;;;6250622;23;20012;-88
2023/01/17 12:08:37;;;;;;;9.15;5.78;;;;;;;;;;6251948;23;20004;-89
2023/01/17 12:11:20;;;;;;;10.85;7.85;;;;;;;;;;6252117;23;20011;-88
2023/01/17 12:14:05;;;;;;;10.90;7.47;;;;;;;;;;6252048;23;20256;-88
2023/01/17 12:17:03;;;;;;;11.85;8.32;;;;;;;;;;6251684;23;20355;-88
2023/01/17 12:19:32;;;;;;;20.48;12.65;;;;;;;;;;6129876;23;20010;-87
2023/01/17 12:22:00;;;;;;;48.17;16.98;;;;;;;;;;6105241;23;20016;-88
2023/01/17 12:24:35;;;;;;;24.67;13.55;;;;;;;;;;6130095;23;20006;-89
2023/01/17 12:27:10;;;;;;;23.55;12.70;;;;;;;;;;6129695;23;20010;-89
2023/01/17 12:29:42;;;;;;;16.20;10.30;;;;;;;;;;6129838;23;20289;-88
2023/01/17 12:32:08;;;;;;;;;;;;;;;;;;6130189;23;20014;-89
2023/01/17 12:34:37;;;;;;;26.23;11.73;;;;;;;;;;6129979;23;19971;-92
2023/01/17 12:37:06;;;;;;;46.78;15.00;;;;;;;;;;6105430;23;20062;-88
2023/01/17 12:39:41;;;;;;;30.13;13.20;;;;;;;;;;6130093;23;20324;-89
2023/01/17 12:42:23;;;;;;;31.42;12.35;;;;;;;;;;6129928;23;20010;-88
2023/01/17 12:45:09;;;;;;;54.28;27.80;;;;;;;;;;6129999;23;20084;-88
2023/01/17 12:47:37;;;;;;;39.20;20.58;;;;;;;;;;6105368;23;20010;-89
2023/01/17 12:50:15;;;;;;;30.60;17.23;;;;;;;;;;6129758;23;19998;-87
2023/01/17 12:52:56;;;;;;;38.65;21.90;;;;;;;;;;6130096;23;20006;-89
2023/01/17 12:55:33;;;;;;;41.72;23.73;;;;;;;;;;6206834;23;20003;-88
2023/01/17 12:58:00;;;;;;;45.53;25.48;;;;;;;;;;6250215;23;20367;-88
2023/01/17 13:00:28;;;;;;;35.88;20.67;;;;;;;;;;6251178;22;20024;-89
2023/01/17 13:02:54;;;;;;;24.50;14.43;;;;;;;;;;6249820;23;20095;-89
2023/01/17 13:05:24;;;;;;;20.70;12.73;;;;;;;;;;6251654;23;20027;-89
2023/01/17 13:08:09;;;;;;;13.07;9.18;;;;;;;;;;6251348;23;20004;-89
2023/01/17 13:10:35;;;;;;;24.83;13.85;;;;;;;;;;6250118;23;20006;-88
2023/01/17 13:13:13;;;;;;;26.90;13.60;;;;;;;;;;6249864;23;20004;-90
2023/01/17 13:15:41;;;;;;;32.67;18.25;;;;;;;;;;6249621;23;20031;-89
2023/01/17 13:18:14;;;;;;;48.95;22.65;;;;;;;;;;6251141;23;20000;-89
2023/01/17 13:20:48;;;;;;;50.97;23.75;;;;;;;;;;6251153;23;20004;-89
2023/01/17 13:23:26;;;;;;;46.78;25.15;;;;;;;;;;6251454;23;20000;-89
2023/01/17 13:25:56;;;;;;;41.97;25.02;;;;;;;;;;6251476;23;20011;-89
2023/01/17 13:28:34;;;;;;;143.60;66.25;;;;;;;;;;6251013;23;20031;-87
2023/01/17 13:31:19;;;;;;;33.22;19.00;;;;;;;;;;6251252;23;20079;-87
2023/01/17 13:33:57;;;;;;;19.25;12.52;;;;;;;;;;6251497;23;20031;-87
2023/01/17 13:36:32;;;;;;;31.23;19.67;;;;;;;;;;6251392;23;20023;-87
2023/01/17 13:39:25;;;;;;;24.35;15.50;;;;;;;;;;6251078;23;20413;-87
2023/01/17 13:41:53;;;;;;;31.25;18.60;;;;;;;;;;6249780;23;20008;-87
2023/01/17 13:44:28;;;;;;;26.20;17.05;;;;;;;;;;6250323;23;20015;-87
2023/01/17 13:47:06;;;;;;;21.75;12.40;;;;;;;;;;6252931;23;20050;-87
2023/01/17 13:49:34;;;;;;;42.60;29.05;;;;;;;;;;6251945;23;20051;-88
2023/01/17 13:52:09;;;;;;;169.88;101.57;;;;;;;;;;6251697;23;20358;-86
2023/01/17 13:54:43;;;;;;;211.10;130.85;;;;;;;;;;6253290;23;20006;-87
2023/01/17 13:57:25;;;;;;;261.08;168.02;;;;;;;;;;6252023;23;20008;-86
2023/01/17 13:59:54;;;;;;;177.27;94.55;;;;;;;;;;6252497;23;20032;-87
2023/01/17 14:02:33;;;;;;;97.13;52.92;;;;;;;;;;6251513;23;20016;-86
2023/01/17 14:05:05;;;;;;;168.45;91.30;;;;;;;;;;6253044;23;20050;-86
2023/01/17 14:07:31;;;;;;;;;;;;;;;;;;6253264;23;20103;-86
2023/01/17 14:09:57;;;;;;;111.65;55.28;;;;;;;;;;6252210;23;19907;-85
2023/01/17 14:12:24;;;;;;;122.32;58.45;;;;;;;;;;6251910;23;20007;-86
2023/01/17 14:14:54;;;;;;;96.82;49.65;;;;;;;;;;6251907;23;20004;-86
2023/01/17 14:17:26;;;;;;;65.88;35.47;;;;;;;;;;6249804;23;20059;-86
2023/01/17 14:19:54;;;;;;;68.45;34.60;;;;;;;;;;6251877;23;20310;-86
2023/01/17 14:22:20;;;;;;;76.80;41.58;;;;;;;;;;6252073;23;20011;-86
2023/01/17 14:24:58;;;;;;;70.82;38.28;;;;;;;;;;6225063;23;20004;-87
2023/01/17 14:27:25;;;;;;;63.85;36.83;;;;;;;;;;6251338;23;20260;-87
2023/01/17 14:29:59;;;;;;;52.25;33.35;;;;;;;;;;6250240;23;20026;-87
2023/01/17 14:35:28;;;;;;;48.90;29.58;;;;;;;;;;6251861;23;20266;-87
2023/01/17 14:38:02;;;;;;;52.13;31.60;;;;;;;;;;6251430;23;20003;-87
2023/01/17 14:40:32;;;;;;;35.08;22.42;;;;;;;;;;6248502;23;20019;-86
2023/01/17 14:43:06;;;;;;;43.92;25.80;;;;;;;;;;6251000;23;20024;-86
2023/01/17 14:46:22;;;;;;;38.88;24.15;;;;;;;;;;6251065;23;20229;-87
2023/01/17 14:48:48;;;;;;;55.03;35.05;;;;;;;;;;6251296;23;20016;-86
2023/01/17 14:51:19;;;;;;;42.35;26.23;;;;;;;;;;6252407;23;20367;-88
2023/01/17 14:53:58;;;;;;;39.33;24.13;;;;;;;;;;6252781;23;20011;-87
2023/01/17 14:56:25;;;;;;;37.67;22.25;;;;;;;;;;6252326;23;20041;-86
2023/01/17 14:59:30;;;;;;;25.13;15.18;;;;;;;;;;6252652;23;20310;-86
2023/01/17 15:02:17;;;;;;;27.27;17.08;;;;;;;;;;6158646;23;20096;-87
2023/01/17 15:04:44;;;;;;;26.13;15.82;;;;;;;;;;6159107;23;20025;-87
2023/01/17 15:07:14;;;;;;;20.83;12.73;;;;;;;;;;6134439;23;20390;-86
2023/01/17 15:09:41;;;;;;;24.20;16.20;;;;;;;;;;6134469;23;20001;-86
2023/01/17 15:12:08;;;;;;;35.92;22.65;;;;;;;;;;6134067;23;20044;-86
2023/01/17 15:14:37;;;;;;;33.13;21.17;;;;;;;;;;6133615;23;20042;-87
2023/01/17 15:20:15;;;;;;;27.63;16.52;;;;;;;;;;6159040;23;20040;-86
2023/01/17 15:22:41;;;;;;;22.92;15.38;;;;;;;;;;6158729;23;20024;-87
2023/01/17 15:25:09;;;;;;;25.63;15.55;;;;;;;;;;6159208;23;20017;-87
2023/01/17 15:27:36;;;;;;;28.77;16.08;;;;;;;;;;6133373;23;20064;-86
2023/01/17 15:30:05;;;;;;;37.65;19.20;;;;;;;;;;6158712;23;20002;-85
2023/01/17 15:32:31;;;;;;;47.90;24.63;;;;;;;;;;6199417;23;20012;-86
2023/01/17 15:35:01;;;;;;;48.75;24.33;;;;;;;;;;6249828;23;20011;-85
2023/01/17 15:37:29;;;;;;;22.88;13.27;;;;;;;;;;6251731;23;20084;-86
2023/01/17 15:40:07;;;;;;;24.77;13.35;;;;;;;;;;6251413;23;20004;-86
2023/01/17 15:42:35;;;;;;;21.77;11.63;;;;;;;;;;6250001;23;20008;-85
2023/01/17 15:45:03;;;;;;;18.38;9.88;;;;;;;;;;6249571;23;20102;-85
2023/01/17 15:53:51;;;;;;;19.45;8.93;;;;;;;;;;6251471;23;20046;-87
2023/01/17 15:56:19;;;;;;;19.00;10.18;;;;;;;;;;6251986;23;20011;-88
2023/01/17 15:58:49;;;;;;;38.70;20.92;;;;;;;;;;6251842;23;19996;-85
2023/01/17 16:01:16;;;;;;;21.52;11.77;;;;;;;;;;6251237;23;20023;-84
2023/01/17 16:03:54;;;;;;;18.70;10.70;;;;;;;;;;6251729;23;20004;-88
2023/01/17 16:06:44;;;;;;;16.85;9.77;;;;;;;;;;6251767;23;20000;-88
2023/01/17 16:09:21;;;;;;;15.05;8.77;;;;;;;;;;6250207;23;20005;-87
2023/01/17 16:11:47;;;;;;;15.32;9.50;;;;;;;;;;6251899;23;20019;-87
2023/01/17 16:14:13;;;;;;;16.10;10.63;;;;;;;;;;6252037;23;20308;-86
2023/01/17 16:16:39;;;;;;;40.15;23.13;;;;;;;;;;6250382;23;20004;-90
2023/01/17 16:19:05;;;;;;;31.42;19.63;;;;;;;;;;6250346;23;20012;-91
2023/01/17 16:21:31;;;;;;;28.60;17.55;;;;;;;;;;6252003;23;20004;-91
2023/01/17 16:23:58;;;;;;;25.77;13.45;;;;;;;;;;6251887;23;20004;-91
2023/01/17 16:26:25;;;;;;;30.27;15.05;;;;;;;;;;6251031;23;20099;-90
2023/01/17 16:28:51;;;;;;;25.65;12.65;;;;;;;;;;6251816;23;20229;-89
2023/01/17 16:31:17;;;;;;;27.83;13.75;;;;;;;;;;6251702;23;20008;-90
2023/01/17 16:33:44;;;;;;;29.83;12.90;;;;;;;;;;6252010;23;20237;-90